sensor_id;sensor_type;location;lat;lon;timestamp;P1;durP1;ratioP1;P2;durP2;ratioP2
4748;SDS011;2388;53.582;9.962;2022-07-10T00:01:56;1.83;;;1.23;;
4748;SDS011;2388;53.582;9.962;2022-07-10T00:04:21;2.27;;;0.50;;
4748;SDS011;2388;53.582;9.962;2022-07-10T00:06:47;3.43;;;0.90;;
4748;SDS011;2388;53.582;9.962;2022-07-10T00:09:13;8.27;;;0.90;;
4748;SDS011;2388;53.582;9.962;2022-07-10T00:11:39;4.23;;;0.70;;
4748;SDS011;2388;53.582;9.962;2022-07-10T00:14:05;1.93;;;0.63;;
4748;SDS011;2388;53.582;9.962;2022-07-10T00:16:31;4.37;;;1.23;;
4748;SDS011;2388;53.582;9.962;2022-07-10T00:18:56;3.13;;;0.87;;
4748;SDS011;2388;53.582;9.962;2022-07-10T00:21:21;2.53;;;0.60;;
4748;SDS011;2388;53.582;9.962;2022-07-10T00:23:47;7.40;;;1.03;;
4748;SDS011;2388;53.582;9.962;2022-07-10T00:26:13;2.83;;;0.93;;
4748;SDS011;2388;53.582;9.962;2022-07-10T00:28:38;4.30;;;0.97;;
4748;SDS011;2388;53.582;9.962;2022-07-10T00:31:04;4.50;;;0.90;;
4748;SDS011;2388;53.582;9.962;2022-07-10T00:33:29;4.37;;;1.53;;
4748;SDS011;2388;53.582;9.962;2022-07-10T00:35:57;5.70;;;0.87;;
4748;SDS011;2388;53.582;9.962;2022-07-10T00:38:23;2.40;;;0.90;;
4748;SDS011;2388;53.582;9.962;2022-07-10T00:40:49;4.77;;;1.00;;
4748;SDS011;2388;53.582;9.962;2022-07-10T00:43:14;2.47;;;0.70;;
4748;SDS011;2388;53.582;9.962;2022-07-10T00:45:40;4.23;;;0.63;;
4748;SDS011;2388;53.582;9.962;2022-07-10T00:48:05;4.07;;;0.80;;
4748;SDS011;2388;53.582;9.962;2022-07-10T00:50:31;8.93;;;1.20;;
4748;SDS011;2388;53.582;9.962;2022-07-10T00:52:58;5.90;;;0.90;;
4748;SDS011;2388;53.582;9.962;2022-07-10T00:55:24;3.93;;;0.90;;
4748;SDS011;2388;53.582;9.962;2022-07-10T00:57:50;4.23;;;1.17;;
4748;SDS011;2388;53.582;9.962;2022-07-10T01:00:15;7.73;;;1.00;;
4748;SDS011;2388;53.582;9.962;2022-07-10T01:02:41;4.37;;;1.23;;
4748;SDS011;2388;53.582;9.962;2022-07-10T01:05:08;2.60;;;0.90;;
4748;SDS011;2388;53.582;9.962;2022-07-10T01:07:34;5.10;;;1.20;;
4748;SDS011;2388;53.582;9.962;2022-07-10T01:09:59;4.30;;;1.00;;
4748;SDS011;2388;53.582;9.962;2022-07-10T01:12:27;2.90;;;1.17;;
4748;SDS011;2388;53.582;9.962;2022-07-10T01:14:53;6.10;;;0.93;;
4748;SDS011;2388;53.582;9.962;2022-07-10T01:17:19;3.20;;;0.73;;
4748;SDS011;2388;53.582;9.962;2022-07-10T01:19:45;1.97;;;0.60;;
4748;SDS011;2388;53.582;9.962;2022-07-10T01:22:10;4.00;;;0.70;;
4748;SDS011;2388;53.582;9.962;2022-07-10T01:24:36;4.53;;;0.93;;
4748;SDS011;2388;53.582;9.962;2022-07-10T01:27:02;7.80;;;1.80;;
4748;SDS011;2388;53.582;9.962;2022-07-10T01:29:28;2.87;;;0.87;;
4748;SDS011;2388;53.582;9.962;2022-07-10T01:31:54;6.70;;;0.70;;
4748;SDS011;2388;53.582;9.962;2022-07-10T01:34:20;4.63;;;1.00;;
4748;SDS011;2388;53.582;9.962;2022-07-10T01:36:46;2.93;;;0.60;;
4748;SDS011;2388;53.582;9.962;2022-07-10T01:39:12;4.17;;;0.60;;
4748;SDS011;2388;53.582;9.962;2022-07-10T01:41:37;1.83;;;0.73;;
4748;SDS011;2388;53.582;9.962;2022-07-10T01:44:03;13.13;;;1.10;;
4748;SDS011;2388;53.582;9.962;2022-07-10T01:46:29;2.43;;;0.87;;
4748;SDS011;2388;53.582;9.962;2022-07-10T01:48:54;5.53;;;0.80;;
4748;SDS011;2388;53.582;9.962;2022-07-10T01:51:20;1.53;;;0.47;;
4748;SDS011;2388;53.582;9.962;2022-07-10T01:53:46;4.10;;;0.77;;
4748;SDS011;2388;53.582;9.962;2022-07-10T01:56:12;4.40;;;0.70;;
4748;SDS011;2388;53.582;9.962;2022-07-10T01:58:38;4.07;;;0.90;;
4748;SDS011;2388;53.582;9.962;2022-07-10T02:01:05;2.63;;;0.80;;
4748;SDS011;2388;53.582;9.962;2022-07-10T02:03:31;2.60;;;0.70;;
4748;SDS011;2388;53.582;9.962;2022-07-10T02:06:16;3.90;;;0.93;;
4748;SDS011;2388;53.582;9.962;2022-07-10T02:08:41;6.50;;;0.80;;
4748;SDS011;2388;53.582;9.962;2022-07-10T02:11:07;2.63;;;0.60;;
4748;SDS011;2388;53.582;9.962;2022-07-10T02:13:32;2.93;;;0.70;;
4748;SDS011;2388;53.582;9.962;2022-07-10T02:15:58;4.53;;;1.23;;
4748;SDS011;2388;53.582;9.962;2022-07-10T02:18:23;3.53;;;1.97;;
4748;SDS011;2388;53.582;9.962;2022-07-10T02:20:50;0.83;;;0.40;;
4748;SDS011;2388;53.582;9.962;2022-07-10T02:23:16;3.03;;;0.73;;
4748;SDS011;2388;53.582;9.962;2022-07-10T02:25:41;5.60;;;0.97;;
4748;SDS011;2388;53.582;9.962;2022-07-10T02:28:08;4.67;;;0.87;;
4748;SDS011;2388;53.582;9.962;2022-07-10T02:30:34;2.87;;;1.00;;
4748;SDS011;2388;53.582;9.962;2022-07-10T02:33:00;5.13;;;1.00;;
4748;SDS011;2388;53.582;9.962;2022-07-10T02:35:25;2.73;;;0.90;;
4748;SDS011;2388;53.582;9.962;2022-07-10T02:37:51;2.33;;;0.93;;
4748;SDS011;2388;53.582;9.962;2022-07-10T02:40:17;3.90;;;1.00;;
4748;SDS011;2388;53.582;9.962;2022-07-10T02:42:42;2.77;;;1.10;;
4748;SDS011;2388;53.582;9.962;2022-07-10T02:45:08;6.97;;;1.03;;
4748;SDS011;2388;53.582;9.962;2022-07-10T02:47:33;4.30;;;0.77;;
4748;SDS011;2388;53.582;9.962;2022-07-10T02:49:59;4.00;;;0.90;;
4748;SDS011;2388;53.582;9.962;2022-07-10T02:52:24;5.17;;;1.13;;
4748;SDS011;2388;53.582;9.962;2022-07-10T02:54:50;3.77;;;1.10;;
4748;SDS011;2388;53.582;9.962;2022-07-10T02:57:16;3.20;;;0.90;;
4748;SDS011;2388;53.582;9.962;2022-07-10T02:59:42;7.27;;;1.23;;
4748;SDS011;2388;53.582;9.962;2022-07-10T03:02:07;4.20;;;1.23;;
4748;SDS011;2388;53.582;9.962;2022-07-10T03:04:33;5.50;;;1.63;;
4748;SDS011;2388;53.582;9.962;2022-07-10T03:06:58;3.10;;;1.40;;
4748;SDS011;2388;53.582;9.962;2022-07-10T03:09:24;3.00;;;1.00;;
4748;SDS011;2388;53.582;9.962;2022-07-10T03:11:50;5.43;;;1.03;;
4748;SDS011;2388;53.582;9.962;2022-07-10T03:14:16;4.47;;;0.90;;
4748;SDS011;2388;53.582;9.962;2022-07-10T03:16:42;8.23;;;1.17;;
4748;SDS011;2388;53.582;9.962;2022-07-10T03:19:08;3.90;;;1.00;;
4748;SDS011;2388;53.582;9.962;2022-07-10T03:21:33;4.37;;;1.07;;
4748;SDS011;2388;53.582;9.962;2022-07-10T03:23:59;0.90;;;0.70;;
4748;SDS011;2388;53.582;9.962;2022-07-10T03:26:24;10.03;;;1.50;;
4748;SDS011;2388;53.582;9.962;2022-07-10T03:28:50;3.57;;;0.90;;
4748;SDS011;2388;53.582;9.962;2022-07-10T03:31:15;7.23;;;1.10;;
4748;SDS011;2388;53.582;9.962;2022-07-10T03:33:41;4.50;;;1.63;;
4748;SDS011;2388;53.582;9.962;2022-07-10T03:36:06;6.83;;;2.00;;
4748;SDS011;2388;53.582;9.962;2022-07-10T03:38:32;5.00;;;1.10;;
4748;SDS011;2388;53.582;9.962;2022-07-10T03:40:57;5.43;;;1.60;;
4748;SDS011;2388;53.582;9.962;2022-07-10T03:43:23;3.33;;;1.30;;
4748;SDS011;2388;53.582;9.962;2022-07-10T03:45:49;10.70;;;1.43;;
4748;SDS011;2388;53.582;9.962;2022-07-10T03:48:15;4.00;;;1.10;;
4748;SDS011;2388;53.582;9.962;2022-07-10T03:50:41;2.27;;;0.93;;
4748;SDS011;2388;53.582;9.962;2022-07-10T03:53:06;7.50;;;1.87;;
4748;SDS011;2388;53.582;9.962;2022-07-10T03:55:32;5.00;;;1.47;;
4748;SDS011;2388;53.582;9.962;2022-07-10T03:57:57;5.10;;;1.63;;
4748;SDS011;2388;53.582;9.962;2022-07-10T04:00:27;6.17;;;1.40;;
4748;SDS011;2388;53.582;9.962;2022-07-10T04:05:26;3.73;;;1.33;;
4748;SDS011;2388;53.582;9.962;2022-07-10T04:07:52;3.77;;;2.17;;
4748;SDS011;2388;53.582;9.962;2022-07-10T04:10:18;8.13;;;1.90;;
4748;SDS011;2388;53.582;9.962;2022-07-10T04:12:44;5.27;;;1.13;;
4748;SDS011;2388;53.582;9.962;2022-07-10T04:15:10;13.90;;;2.23;;
4748;SDS011;2388;53.582;9.962;2022-07-10T04:17:36;7.30;;;2.23;;
4748;SDS011;2388;53.582;9.962;2022-07-10T04:20:02;10.43;;;1.80;;
4748;SDS011;2388;53.582;9.962;2022-07-10T04:22:28;7.03;;;1.47;;
4748;SDS011;2388;53.582;9.962;2022-07-10T04:24:54;8.47;;;1.97;;
4748;SDS011;2388;53.582;9.962;2022-07-10T04:27:19;14.47;;;2.33;;
4748;SDS011;2388;53.582;9.962;2022-07-10T04:29:45;9.87;;;2.17;;
4748;SDS011;2388;53.582;9.962;2022-07-10T04:32:11;7.57;;;1.50;;
4748;SDS011;2388;53.582;9.962;2022-07-10T04:34:37;12.27;;;2.13;;
4748;SDS011;2388;53.582;9.962;2022-07-10T04:37:03;8.10;;;1.93;;
4748;SDS011;2388;53.582;9.962;2022-07-10T04:39:29;20.23;;;7.67;;
4748;SDS011;2388;53.582;9.962;2022-07-10T04:41:55;25.07;;;14.40;;
4748;SDS011;2388;53.582;9.962;2022-07-10T04:44:20;20.80;;;8.20;;
4748;SDS011;2388;53.582;9.962;2022-07-10T04:46:46;11.30;;;4.20;;
4748;SDS011;2388;53.582;9.962;2022-07-10T04:49:12;8.67;;;2.30;;
4748;SDS011;2388;53.582;9.962;2022-07-10T04:51:38;8.47;;;2.67;;
4748;SDS011;2388;53.582;9.962;2022-07-10T04:54:04;10.67;;;2.33;;
4748;SDS011;2388;53.582;9.962;2022-07-10T04:56:29;15.13;;;3.00;;
4748;SDS011;2388;53.582;9.962;2022-07-10T04:58:55;10.07;;;2.00;;
4748;SDS011;2388;53.582;9.962;2022-07-10T05:01:20;7.33;;;2.60;;
4748;SDS011;2388;53.582;9.962;2022-07-10T05:03:46;11.10;;;2.10;;
4748;SDS011;2388;53.582;9.962;2022-07-10T05:06:11;7.47;;;2.30;;
4748;SDS011;2388;53.582;9.962;2022-07-10T05:08:37;11.70;;;2.37;;
4748;SDS011;2388;53.582;9.962;2022-07-10T05:11:03;8.07;;;2.10;;
4748;SDS011;2388;53.582;9.962;2022-07-10T05:13:28;12.80;;;2.80;;
4748;SDS011;2388;53.582;9.962;2022-07-10T05:15:54;12.97;;;3.60;;
4748;SDS011;2388;53.582;9.962;2022-07-10T05:18:19;10.73;;;2.50;;
4748;SDS011;2388;53.582;9.962;2022-07-10T05:20:45;16.40;;;3.07;;
4748;SDS011;2388;53.582;9.962;2022-07-10T05:23:12;15.70;;;3.00;;
4748;SDS011;2388;53.582;9.962;2022-07-10T05:25:38;10.60;;;2.40;;
4748;SDS011;2388;53.582;9.962;2022-07-10T05:28:04;10.90;;;2.17;;
4748;SDS011;2388;53.582;9.962;2022-07-10T05:30:30;6.70;;;1.93;;
4748;SDS011;2388;53.582;9.962;2022-07-10T05:32:56;4.70;;;1.60;;
4748;SDS011;2388;53.582;9.962;2022-07-10T05:35:21;10.17;;;2.30;;
4748;SDS011;2388;53.582;9.962;2022-07-10T05:37:47;14.87;;;2.90;;
4748;SDS011;2388;53.582;9.962;2022-07-10T05:40:12;11.23;;;1.90;;
4748;SDS011;2388;53.582;9.962;2022-07-10T05:42:38;10.10;;;2.43;;
4748;SDS011;2388;53.582;9.962;2022-07-10T05:45:04;14.50;;;2.03;;
4748;SDS011;2388;53.582;9.962;2022-07-10T05:47:30;10.87;;;2.70;;
4748;SDS011;2388;53.582;9.962;2022-07-10T05:49:56;11.57;;;2.50;;
4748;SDS011;2388;53.582;9.962;2022-07-10T05:52:21;6.23;;;1.87;;
4748;SDS011;2388;53.582;9.962;2022-07-10T05:54:47;7.10;;;2.30;;
4748;SDS011;2388;53.582;9.962;2022-07-10T05:57:12;10.57;;;1.73;;
4748;SDS011;2388;53.582;9.962;2022-07-10T05:59:38;17.93;;;3.00;;
4748;SDS011;2388;53.582;9.962;2022-07-10T06:02:03;6.87;;;1.80;;
4748;SDS011;2388;53.582;9.962;2022-07-10T06:04:29;12.13;;;2.30;;
4748;SDS011;2388;53.582;9.962;2022-07-10T06:06:55;9.73;;;2.07;;
4748;SDS011;2388;53.582;9.962;2022-07-10T06:09:21;11.07;;;2.93;;
4748;SDS011;2388;53.582;9.962;2022-07-10T06:11:46;15.53;;;2.90;;
4748;SDS011;2388;53.582;9.962;2022-07-10T06:14:13;10.33;;;2.53;;
4748;SDS011;2388;53.582;9.962;2022-07-10T06:16:39;10.13;;;2.33;;
4748;SDS011;2388;53.582;9.962;2022-07-10T06:19:04;9.50;;;2.10;;
4748;SDS011;2388;53.582;9.962;2022-07-10T06:21:30;7.77;;;2.23;;
4748;SDS011;2388;53.582;9.962;2022-07-10T06:23:55;10.23;;;2.10;;
4748;SDS011;2388;53.582;9.962;2022-07-10T06:26:21;11.80;;;2.00;;
4748;SDS011;2388;53.582;9.962;2022-07-10T06:28:46;10.17;;;1.90;;
4748;SDS011;2388;53.582;9.962;2022-07-10T06:31:12;7.60;;;2.10;;
4748;SDS011;2388;53.582;9.962;2022-07-10T06:33:38;19.83;;;2.10;;
4748;SDS011;2388;53.582;9.962;2022-07-10T06:36:04;9.70;;;2.57;;
4748;SDS011;2388;53.582;9.962;2022-07-10T06:38:29;7.40;;;1.80;;
4748;SDS011;2388;53.582;9.962;2022-07-10T06:40:55;12.20;;;2.37;;
4748;SDS011;2388;53.582;9.962;2022-07-10T06:43:20;11.73;;;2.20;;
4748;SDS011;2388;53.582;9.962;2022-07-10T06:45:46;17.53;;;2.70;;
4748;SDS011;2388;53.582;9.962;2022-07-10T06:48:12;12.07;;;2.07;;
4748;SDS011;2388;53.582;9.962;2022-07-10T06:50:38;10.40;;;1.80;;
4748;SDS011;2388;53.582;9.962;2022-07-10T06:53:04;7.23;;;1.40;;
4748;SDS011;2388;53.582;9.962;2022-07-10T06:55:30;10.17;;;2.50;;
4748;SDS011;2388;53.582;9.962;2022-07-10T06:57:57;18.80;;;2.30;;
4748;SDS011;2388;53.582;9.962;2022-07-10T07:00:22;8.83;;;1.83;;
4748;SDS011;2388;53.582;9.962;2022-07-10T07:02:48;11.97;;;2.20;;
4748;SDS011;2388;53.582;9.962;2022-07-10T07:05:14;14.13;;;1.87;;
4748;SDS011;2388;53.582;9.962;2022-07-10T07:07:39;12.67;;;2.67;;
4748;SDS011;2388;53.582;9.962;2022-07-10T07:10:05;5.77;;;1.80;;
4748;SDS011;2388;53.582;9.962;2022-07-10T07:12:32;8.23;;;1.90;;
4748;SDS011;2388;53.582;9.962;2022-07-10T07:14:57;11.20;;;1.77;;
4748;SDS011;2388;53.582;9.962;2022-07-10T07:17:23;10.10;;;2.07;;
4748;SDS011;2388;53.582;9.962;2022-07-10T07:19:50;15.33;;;2.70;;
4748;SDS011;2388;53.582;9.962;2022-07-10T07:22:35;10.50;;;1.80;;
4748;SDS011;2388;53.582;9.962;2022-07-10T07:25:20;8.97;;;2.03;;
4748;SDS011;2388;53.582;9.962;2022-07-10T07:27:46;11.03;;;2.53;;
4748;SDS011;2388;53.582;9.962;2022-07-10T07:30:12;8.50;;;2.10;;
4748;SDS011;2388;53.582;9.962;2022-07-10T07:32:40;13.43;;;2.93;;
4748;SDS011;2388;53.582;9.962;2022-07-10T07:35:06;10.20;;;1.93;;
4748;SDS011;2388;53.582;9.962;2022-07-10T07:37:39;16.63;;;2.20;;
4748;SDS011;2388;53.582;9.962;2022-07-10T07:40:11;13.13;;;2.40;;
4748;SDS011;2388;53.582;9.962;2022-07-10T07:42:41;9.50;;;1.80;;
4748;SDS011;2388;53.582;9.962;2022-07-10T07:45:08;7.47;;;1.90;;
4748;SDS011;2388;53.582;9.962;2022-07-10T07:47:46;9.53;;;1.47;;
4748;SDS011;2388;53.582;9.962;2022-07-10T07:50:14;7.07;;;1.33;;
4748;SDS011;2388;53.582;9.962;2022-07-10T07:52:41;6.20;;;1.33;;
4748;SDS011;2388;53.582;9.962;2022-07-10T07:55:07;6.40;;;1.30;;
4748;SDS011;2388;53.582;9.962;2022-07-10T07:57:34;3.43;;;1.83;;
4748;SDS011;2388;53.582;9.962;2022-07-10T07:59:59;7.37;;;1.57;;
4748;SDS011;2388;53.582;9.962;2022-07-10T08:02:25;8.20;;;1.67;;
4748;SDS011;2388;53.582;9.962;2022-07-10T08:04:50;7.20;;;3.50;;
4748;SDS011;2388;53.582;9.962;2022-07-10T08:07:16;6.63;;;3.10;;
4748;SDS011;2388;53.582;9.962;2022-07-10T08:09:41;10.27;;;2.97;;
4748;SDS011;2388;53.582;9.962;2022-07-10T08:12:07;11.57;;;3.53;;
4748;SDS011;2388;53.582;9.962;2022-07-10T08:14:33;8.50;;;1.93;;
4748;SDS011;2388;53.582;9.962;2022-07-10T08:16:58;12.87;;;2.57;;
4748;SDS011;2388;53.582;9.962;2022-07-10T08:19:24;10.90;;;2.77;;
4748;SDS011;2388;53.582;9.962;2022-07-10T08:21:50;6.20;;;1.97;;
4748;SDS011;2388;53.582;9.962;2022-07-10T08:24:15;7.10;;;1.90;;
4748;SDS011;2388;53.582;9.962;2022-07-10T08:26:41;5.33;;;1.73;;
4748;SDS011;2388;53.582;9.962;2022-07-10T08:29:06;8.10;;;1.83;;
4748;SDS011;2388;53.582;9.962;2022-07-10T08:31:32;6.50;;;1.80;;
4748;SDS011;2388;53.582;9.962;2022-07-10T08:33:58;9.87;;;2.20;;
4748;SDS011;2388;53.582;9.962;2022-07-10T08:36:24;9.97;;;2.20;;
4748;SDS011;2388;53.582;9.962;2022-07-10T08:38:51;5.50;;;1.57;;
4748;SDS011;2388;53.582;9.962;2022-07-10T08:41:24;9.50;;;1.40;;
4748;SDS011;2388;53.582;9.962;2022-07-10T08:43:50;7.43;;;2.20;;
4748;SDS011;2388;53.582;9.962;2022-07-10T08:46:16;18.07;;;6.70;;
4748;SDS011;2388;53.582;9.962;2022-07-10T08:48:44;10.70;;;5.03;;
4748;SDS011;2388;53.582;9.962;2022-07-10T08:51:12;7.67;;;2.10;;
4748;SDS011;2388;53.582;9.962;2022-07-10T08:53:45;8.67;;;2.10;;
4748;SDS011;2388;53.582;9.962;2022-07-10T08:56:14;9.53;;;1.83;;
4748;SDS011;2388;53.582;9.962;2022-07-10T08:58:40;7.50;;;1.20;;
4748;SDS011;2388;53.582;9.962;2022-07-10T09:01:07;3.53;;;1.47;;
4748;SDS011;2388;53.582;9.962;2022-07-10T09:03:33;6.33;;;1.87;;
4748;SDS011;2388;53.582;9.962;2022-07-10T09:05:58;5.73;;;1.70;;
4748;SDS011;2388;53.582;9.962;2022-07-10T09:08:25;8.30;;;1.13;;
4748;SDS011;2388;53.582;9.962;2022-07-10T09:11:05;6.50;;;1.50;;
4748;SDS011;2388;53.582;9.962;2022-07-10T09:13:50;1.90;;;1.00;;
4748;SDS011;2388;53.582;9.962;2022-07-10T09:16:26;7.23;;;2.37;;
4748;SDS011;2388;53.582;9.962;2022-07-10T09:18:53;7.57;;;2.40;;
4748;SDS011;2388;53.582;9.962;2022-07-10T09:21:19;5.00;;;1.50;;
4748;SDS011;2388;53.582;9.962;2022-07-10T09:23:45;10.60;;;1.90;;
4748;SDS011;2388;53.582;9.962;2022-07-10T09:26:11;8.10;;;1.57;;
4748;SDS011;2388;53.582;9.962;2022-07-10T09:28:37;7.10;;;1.30;;
4748;SDS011;2388;53.582;9.962;2022-07-10T09:31:03;9.23;;;1.43;;
4748;SDS011;2388;53.582;9.962;2022-07-10T09:33:29;4.37;;;1.67;;
4748;SDS011;2388;53.582;9.962;2022-07-10T09:41:17;6.83;;;1.97;;
4748;SDS011;2388;53.582;9.962;2022-07-10T09:43:49;4.73;;;1.13;;
4748;SDS011;2388;53.582;9.962;2022-07-10T09:46:40;5.53;;;1.20;;
4748;SDS011;2388;53.582;9.962;2022-07-10T09:49:07;6.77;;;1.13;;
4748;SDS011;2388;53.582;9.962;2022-07-10T09:51:34;7.53;;;1.50;;
4748;SDS011;2388;53.582;9.962;2022-07-10T09:54:02;5.17;;;1.30;;
4748;SDS011;2388;53.582;9.962;2022-07-10T09:56:30;6.20;;;1.50;;
4748;SDS011;2388;53.582;9.962;2022-07-10T09:59:04;6.37;;;1.57;;
4748;SDS011;2388;53.582;9.962;2022-07-10T10:01:33;4.70;;;2.27;;
4748;SDS011;2388;53.582;9.962;2022-07-10T10:04:00;6.60;;;3.60;;
4748;SDS011;2388;53.582;9.962;2022-07-10T10:06:28;16.00;;;8.00;;
4748;SDS011;2388;53.582;9.962;2022-07-10T10:09:08;12.03;;;2.07;;
4748;SDS011;2388;53.582;9.962;2022-07-10T10:11:40;9.67;;;2.70;;
4748;SDS011;2388;53.582;9.962;2022-07-10T10:14:08;7.87;;;2.23;;
4748;SDS011;2388;53.582;9.962;2022-07-10T10:16:35;10.87;;;2.87;;
4748;SDS011;2388;53.582;9.962;2022-07-10T10:19:02;5.63;;;1.30;;
4748;SDS011;2388;53.582;9.962;2022-07-10T10:21:46;6.37;;;1.30;;
4748;SDS011;2388;53.582;9.962;2022-07-10T10:24:13;8.53;;;1.50;;
4748;SDS011;2388;53.582;9.962;2022-07-10T10:26:39;3.73;;;1.17;;
4748;SDS011;2388;53.582;9.962;2022-07-10T10:29:06;4.73;;;1.60;;
4748;SDS011;2388;53.582;9.962;2022-07-10T10:31:33;2.80;;;1.37;;
4748;SDS011;2388;53.582;9.962;2022-07-10T10:33:59;5.30;;;1.00;;
4748;SDS011;2388;53.582;9.962;2022-07-10T10:39:13;2.93;;;0.73;;
4748;SDS011;2388;53.582;9.962;2022-07-10T10:41:47;2.50;;;1.40;;
4748;SDS011;2388;53.582;9.962;2022-07-10T10:52:16;3.80;;;1.30;;
4748;SDS011;2388;53.582;9.962;2022-07-10T10:57:39;2.47;;;0.93;;
4748;SDS011;2388;53.582;9.962;2022-07-10T11:00:30;3.33;;;0.90;;
4748;SDS011;2388;53.582;9.962;2022-07-10T11:03:12;3.90;;;0.90;;
4748;SDS011;2388;53.582;9.962;2022-07-10T11:05:39;8.83;;;2.63;;
4748;SDS011;2388;53.582;9.962;2022-07-10T11:08:09;7.30;;;2.47;;
4748;SDS011;2388;53.582;9.962;2022-07-10T11:10:42;5.67;;;1.40;;
4748;SDS011;2388;53.582;9.962;2022-07-10T11:13:11;3.53;;;0.90;;
4748;SDS011;2388;53.582;9.962;2022-07-10T11:15:42;3.13;;;1.13;;
4748;SDS011;2388;53.582;9.962;2022-07-10T11:18:20;4.20;;;1.10;;
4748;SDS011;2388;53.582;9.962;2022-07-10T11:20:53;7.80;;;1.40;;
4748;SDS011;2388;53.582;9.962;2022-07-10T11:23:43;5.53;;;1.20;;
4748;SDS011;2388;53.582;9.962;2022-07-10T11:26:21;8.60;;;1.40;;
4748;SDS011;2388;53.582;9.962;2022-07-10T11:28:55;2.13;;;1.00;;
4748;SDS011;2388;53.582;9.962;2022-07-10T11:31:25;3.60;;;1.90;;
4748;SDS011;2388;53.582;9.962;2022-07-10T11:33:52;5.00;;;2.13;;
4748;SDS011;2388;53.582;9.962;2022-07-10T11:36:20;12.40;;;1.37;;
4748;SDS011;2388;53.582;9.962;2022-07-10T11:38:55;3.73;;;1.50;;
4748;SDS011;2388;53.582;9.962;2022-07-10T11:41:23;4.90;;;0.80;;
4748;SDS011;2388;53.582;9.962;2022-07-10T11:43:52;4.87;;;1.10;;
4748;SDS011;2388;53.582;9.962;2022-07-10T11:46:23;8.87;;;2.40;;
4748;SDS011;2388;53.582;9.962;2022-07-10T11:48:50;5.33;;;1.50;;
4748;SDS011;2388;53.582;9.962;2022-07-10T11:53:58;4.37;;;1.70;;
4748;SDS011;2388;53.582;9.962;2022-07-10T11:56:24;9.10;;;1.37;;
4748;SDS011;2388;53.582;9.962;2022-07-10T11:58:54;6.37;;;2.10;;
4748;SDS011;2388;53.582;9.962;2022-07-10T12:01:24;9.20;;;1.00;;
4748;SDS011;2388;53.582;9.962;2022-07-10T12:03:53;3.77;;;1.07;;
4748;SDS011;2388;53.582;9.962;2022-07-10T12:06:21;3.23;;;0.87;;
4748;SDS011;2388;53.582;9.962;2022-07-10T12:08:48;8.30;;;1.17;;
4748;SDS011;2388;53.582;9.962;2022-07-10T12:11:18;6.00;;;1.53;;
4748;SDS011;2388;53.582;9.962;2022-07-10T12:13:44;6.13;;;1.10;;
4748;SDS011;2388;53.582;9.962;2022-07-10T12:16:11;5.20;;;1.37;;
4748;SDS011;2388;53.582;9.962;2022-07-10T12:18:37;4.77;;;1.07;;
4748;SDS011;2388;53.582;9.962;2022-07-10T12:21:06;3.67;;;1.57;;
4748;SDS011;2388;53.582;9.962;2022-07-10T12:23:33;4.77;;;1.40;;
4748;SDS011;2388;53.582;9.962;2022-07-10T12:26:00;4.10;;;1.20;;
4748;SDS011;2388;53.582;9.962;2022-07-10T12:28:28;6.67;;;1.80;;
4748;SDS011;2388;53.582;9.962;2022-07-10T12:30:53;6.40;;;1.43;;
4748;SDS011;2388;53.582;9.962;2022-07-10T12:33:19;3.63;;;1.03;;
4748;SDS011;2388;53.582;9.962;2022-07-10T12:35:55;4.67;;;1.70;;
4748;SDS011;2388;53.582;9.962;2022-07-10T12:38:23;3.90;;;1.03;;
4748;SDS011;2388;53.582;9.962;2022-07-10T12:41:09;5.50;;;1.03;;
4748;SDS011;2388;53.582;9.962;2022-07-10T12:43:36;17.17;;;1.70;;
4748;SDS011;2388;53.582;9.962;2022-07-10T12:46:15;5.60;;;1.47;;
4748;SDS011;2388;53.582;9.962;2022-07-10T12:51:46;8.43;;;1.40;;
4748;SDS011;2388;53.582;9.962;2022-07-10T12:54:31;6.20;;;2.10;;
4748;SDS011;2388;53.582;9.962;2022-07-10T12:57:01;11.13;;;3.60;;
4748;SDS011;2388;53.582;9.962;2022-07-10T12:59:29;9.67;;;4.87;;
4748;SDS011;2388;53.582;9.962;2022-07-10T13:02:20;5.93;;;1.80;;
4748;SDS011;2388;53.582;9.962;2022-07-10T13:04:56;7.30;;;1.07;;
4748;SDS011;2388;53.582;9.962;2022-07-10T13:07:32;5.67;;;1.93;;
4748;SDS011;2388;53.582;9.962;2022-07-10T13:10:00;5.60;;;1.50;;
4748;SDS011;2388;53.582;9.962;2022-07-10T13:12:30;6.93;;;2.33;;
4748;SDS011;2388;53.582;9.962;2022-07-10T13:14:57;4.00;;;1.50;;
4748;SDS011;2388;53.582;9.962;2022-07-10T13:17:22;4.83;;;1.23;;
4748;SDS011;2388;53.582;9.962;2022-07-10T13:19:48;4.60;;;0.90;;
4748;SDS011;2388;53.582;9.962;2022-07-10T13:22:15;4.33;;;1.10;;
4748;SDS011;2388;53.582;9.962;2022-07-10T13:24:41;4.50;;;1.10;;
4748;SDS011;2388;53.582;9.962;2022-07-10T13:27:07;4.63;;;1.30;;
4748;SDS011;2388;53.582;9.962;2022-07-10T13:29:33;7.77;;;1.50;;
4748;SDS011;2388;53.582;9.962;2022-07-10T13:31:58;4.60;;;1.40;;
4748;SDS011;2388;53.582;9.962;2022-07-10T13:34:24;6.63;;;1.53;;
4748;SDS011;2388;53.582;9.962;2022-07-10T13:36:49;3.90;;;0.97;;
4748;SDS011;2388;53.582;9.962;2022-07-10T13:39:16;10.03;;;1.63;;
4748;SDS011;2388;53.582;9.962;2022-07-10T13:41:42;2.27;;;1.07;;
4748;SDS011;2388;53.582;9.962;2022-07-10T13:44:07;3.10;;;0.83;;
4748;SDS011;2388;53.582;9.962;2022-07-10T13:46:33;4.20;;;1.03;;
4748;SDS011;2388;53.582;9.962;2022-07-10T13:48:59;12.33;;;1.50;;
4748;SDS011;2388;53.582;9.962;2022-07-10T13:51:24;4.60;;;1.10;;
4748;SDS011;2388;53.582;9.962;2022-07-10T13:53:50;6.90;;;1.37;;
4748;SDS011;2388;53.582;9.962;2022-07-10T13:56:15;4.30;;;1.40;;
4748;SDS011;2388;53.582;9.962;2022-07-10T13:58:41;5.80;;;1.30;;
4748;SDS011;2388;53.582;9.962;2022-07-10T14:01:07;3.67;;;1.10;;
4748;SDS011;2388;53.582;9.962;2022-07-10T14:03:33;6.20;;;1.10;;
4748;SDS011;2388;53.582;9.962;2022-07-10T14:05:58;5.27;;;0.70;;
4748;SDS011;2388;53.582;9.962;2022-07-10T14:08:24;3.00;;;1.30;;
4748;SDS011;2388;53.582;9.962;2022-07-10T14:10:51;6.33;;;1.70;;
4748;SDS011;2388;53.582;9.962;2022-07-10T14:13:16;6.17;;;1.30;;
4748;SDS011;2388;53.582;9.962;2022-07-10T14:15:42;7.30;;;1.80;;
4748;SDS011;2388;53.582;9.962;2022-07-10T14:18:10;3.63;;;1.27;;
4748;SDS011;2388;53.582;9.962;2022-07-10T14:20:36;4.90;;;1.00;;
4748;SDS011;2388;53.582;9.962;2022-07-10T14:23:21;3.73;;;1.00;;
4748;SDS011;2388;53.582;9.962;2022-07-10T14:25:46;6.30;;;1.37;;
4748;SDS011;2388;53.582;9.962;2022-07-10T14:28:12;16.20;;;1.43;;
4748;SDS011;2388;53.582;9.962;2022-07-10T14:30:38;5.23;;;1.30;;
4748;SDS011;2388;53.582;9.962;2022-07-10T14:33:04;5.40;;;1.20;;
4748;SDS011;2388;53.582;9.962;2022-07-10T14:35:30;7.50;;;1.00;;
4748;SDS011;2388;53.582;9.962;2022-07-10T14:37:55;3.90;;;1.03;;
4748;SDS011;2388;53.582;9.962;2022-07-10T14:40:21;4.33;;;1.23;;
4748;SDS011;2388;53.582;9.962;2022-07-10T14:42:46;5.70;;;1.23;;
4748;SDS011;2388;53.582;9.962;2022-07-10T14:45:12;3.40;;;1.30;;
4748;SDS011;2388;53.582;9.962;2022-07-10T14:47:37;1.87;;;0.70;;
4748;SDS011;2388;53.582;9.962;2022-07-10T14:50:03;6.20;;;1.40;;
4748;SDS011;2388;53.582;9.962;2022-07-10T14:52:28;2.10;;;1.80;;
4748;SDS011;2388;53.582;9.962;2022-07-10T14:54:56;6.30;;;4.67;;
4748;SDS011;2388;53.582;9.962;2022-07-10T14:57:22;7.67;;;4.70;;
4748;SDS011;2388;53.582;9.962;2022-07-10T14:59:47;9.23;;;3.43;;
4748;SDS011;2388;53.582;9.962;2022-07-10T15:02:13;8.13;;;3.40;;
4748;SDS011;2388;53.582;9.962;2022-07-10T15:04:38;9.53;;;2.00;;
4748;SDS011;2388;53.582;9.962;2022-07-10T15:07:04;8.97;;;6.17;;
4748;SDS011;2388;53.582;9.962;2022-07-10T15:09:29;8.43;;;3.43;;
4748;SDS011;2388;53.582;9.962;2022-07-10T15:11:55;4.30;;;2.00;;
4748;SDS011;2388;53.582;9.962;2022-07-10T15:14:21;1.93;;;1.00;;
4748;SDS011;2388;53.582;9.962;2022-07-10T15:16:46;5.33;;;1.73;;
4748;SDS011;2388;53.582;9.962;2022-07-10T15:19:12;6.30;;;2.90;;
4748;SDS011;2388;53.582;9.962;2022-07-10T15:21:38;4.80;;;2.20;;
4748;SDS011;2388;53.582;9.962;2022-07-10T15:24:04;6.10;;;1.17;;
4748;SDS011;2388;53.582;9.962;2022-07-10T15:26:29;3.07;;;1.50;;
4748;SDS011;2388;53.582;9.962;2022-07-10T15:28:55;6.83;;;1.40;;
4748;SDS011;2388;53.582;9.962;2022-07-10T15:31:24;7.60;;;1.00;;
4748;SDS011;2388;53.582;9.962;2022-07-10T15:33:49;6.30;;;1.40;;
4748;SDS011;2388;53.582;9.962;2022-07-10T15:36:15;5.23;;;1.23;;
4748;SDS011;2388;53.582;9.962;2022-07-10T15:38:41;6.20;;;1.33;;
4748;SDS011;2388;53.582;9.962;2022-07-10T15:41:06;3.07;;;1.20;;